Time;durP1;ratioP1;P1;durP2;ratioP2;P2;SDS_P1;SDS_P2;PMS_P1;PMS_P2;Temp;Humidity;BMP_temperature;BMP_pressure;BME280_temperature;BME280_humidity;BME280_pressure;Samples;Min_cycle;Max_cycle;Signal;HPM_P1;HPM_P2
2022/12/14 00:01:06;;;;;;;15.80;13.20;;;;;;;;;;107895;1277;22570;-31
2022/12/14 00:03:40;;;;;;;15.70;13.00;;;;;;;;;;107879;1273;22578;-31
2022/12/14 00:06:17;;;;;;;17.50;13.20;;;;;;;;;;107881;1280;22552;-31
2022/12/14 00:08:51;;;;;;;16.80;13.90;;;;;;;;;;107936;1276;25291;-31
2022/12/14 00:11:27;;;;;;;16.20;13.10;;;;;;;;;;107940;1278;25872;-31
2022/12/14 00:14:02;;;;;;;14.90;13.20;;;;;;;;;;107969;1276;25294;-31
2022/12/14 00:16:36;;;;;;;15.70;13.50;;;;;;;;;;107864;1276;24916;-31
2022/12/14 00:19:09;;;;;;;15.00;12.70;;;;;;;;;;107857;1277;22594;-31
2022/12/14 00:21:43;;;;;;;16.10;12.80;;;;;;;;;;107888;1278;22681;-31
2022/12/14 00:24:13;;;;;;;;;;;;;;;;;;107889;1282;25415;-31
2022/12/14 00:26:46;;;;;;;14.30;12.50;;;;;;;;;;107864;1277;22572;-31
2022/12/14 00:29:22;;;;;;;15.10;13.40;;;;;;;;;;107897;1276;22624;-31
2022/12/14 00:31:57;;;;;;;15.10;12.80;;;;;;;;;;107890;1277;22572;-31
2022/12/14 00:34:30;;;;;;;14.90;12.20;;;;;;;;;;107943;1276;23377;-31
2022/12/14 00:37:06;;;;;;;15.70;13.10;;;;;;;;;;107852;1278;22590;-31
2022/12/14 00:39:38;;;;;;;15.10;12.70;;;;;;;;;;107870;1282;22585;-31
2022/12/14 00:42:10;;;;;;;17.20;14.00;;;;;;;;;;107882;1279;22597;-31
2022/12/14 00:44:43;;;;;;;16.00;13.20;;;;;;;;;;107793;1282;22591;-31
2022/12/14 00:47:15;;;;;;;14.70;12.80;;;;;;;;;;107859;1277;22637;-31
2022/12/14 00:49:48;;;;;;;17.40;13.90;;;;;;;;;;107920;1276;23883;-31
2022/12/14 00:52:20;;;;;;;16.30;12.90;;;;;;;;;;107927;1279;23301;-31
2022/12/14 00:54:52;;;;;;;15.50;12.70;;;;;;;;;;107921;1277;22576;-31
2022/12/14 00:57:25;;;;;;;15.10;13.10;;;;;;;;;;107852;1276;24856;-31
2022/12/14 00:59:58;;;;;;;15.00;13.30;;;;;;;;;;107853;1279;22569;-31
2022/12/14 01:02:32;;;;;;;15.20;12.70;;;;;;;;;;107889;1278;22570;-31
2022/12/14 01:05:08;;;;;;;17.00;13.60;;;;;;;;;;107863;1279;22515;-31
2022/12/14 01:07:44;;;;;;;16.60;13.80;;;;;;;;;;107864;1278;22584;-31
2022/12/14 01:10:18;;;;;;;15.90;13.30;;;;;;;;;;107920;1277;25353;-31
2022/12/14 01:12:51;;;;;;;16.80;13.10;;;;;;;;;;107896;1278;26100;-31
2022/12/14 01:15:24;;;;;;;15.50;13.40;;;;;;;;;;107922;1274;25304;-31
2022/12/14 01:18:00;;;;;;;15.50;13.00;;;;;;;;;;107845;1278;26631;-31
2022/12/14 01:20:33;;;;;;;16.20;12.80;;;;;;;;;;107850;1282;22584;-31
2022/12/14 01:23:06;;;;;;;14.50;12.30;;;;;;;;;;107865;1278;25307;-31
2022/12/14 01:25:38;;;;;;;16.10;13.10;;;;;;;;;;107874;1279;22608;-31
2022/12/14 01:28:10;;;;;;;16.20;13.80;;;;;;;;;;107827;1276;22589;-31
2022/12/14 01:30:43;;;;;;;15.20;13.40;;;;;;;;;;107887;1276;22613;-31
2022/12/14 01:33:18;;;;;;;15.10;13.10;;;;;;;;;;107921;1277;22604;-31
2022/12/14 01:35:51;;;;;;;15.20;13.00;;;;;;;;;;107895;1276;23284;-31
2022/12/14 01:38:26;;;;;;;16.40;13.50;;;;;;;;;;107844;1278;23304;-31
2022/12/14 01:41:02;;;;;;;14.90;12.50;;;;;;;;;;107854;1278;22603;-31
2022/12/14 01:43:53;;;;;;;15.40;12.90;;;;;;;;;;107912;1279;22584;-31
2022/12/14 01:46:34;;;;;;;15.40;12.60;;;;;;;;;;107902;1276;22668;-31
2022/12/14 01:49:19;;;;;;;15.20;13.00;;;;;;;;;;107875;1276;22588;-31
2022/12/14 01:52:03;;;;;;;13.70;12.00;;;;;;;;;;107909;1279;22731;-31
2022/12/14 01:54:44;;;;;;;14.80;12.50;;;;;;;;;;107913;1276;22584;-31
2022/12/14 01:57:24;;;;;;;16.00;13.20;;;;;;;;;;107875;1276;22661;-31
2022/12/14 01:59:59;;;;;;;14.70;13.20;;;;;;;;;;107790;1280;22594;-31
2022/12/14 02:02:35;;;;;;;17.10;13.60;;;;;;;;;;107869;1279;26648;-31
2022/12/14 02:05:12;;;;;;;16.30;13.30;;;;;;;;;;107865;1282;22571;-31
2022/12/14 02:07:46;;;;;;;14.30;12.10;;;;;;;;;;107842;1282;25282;-31
2022/12/14 02:10:22;;;;;;;16.50;13.20;;;;;;;;;;107919;1278;22571;-31
2022/12/14 02:13:02;;;;;;;15.60;13.70;;;;;;;;;;107917;1276;24839;-31
2022/12/14 02:15:37;;;;;;;16.50;13.30;;;;;;;;;;107918;1280;25989;-31
2022/12/14 02:18:17;;;;;;;15.90;13.30;;;;;;;;;;107881;1280;24910;-31
2022/12/14 02:21:06;;;;;;;15.70;12.90;;;;;;;;;;107860;1279;22569;-31
2022/12/14 02:24:04;;;;;;;16.80;13.00;;;;;;;;;;107872;1278;23552;-31
2022/12/14 02:27:01;;;;;;;15.70;12.90;;;;;;;;;;107856;1276;22610;-31
2022/12/14 02:29:56;;;;;;;14.80;11.80;;;;;;;;;;107847;1277;22599;-31
2022/12/14 02:32:52;;;;;;;16.00;13.10;;;;;;;;;;107905;1276;22600;-31
2022/12/14 02:35:38;;;;;;;14.70;12.80;;;;;;;;;;107914;1277;22568;-31
2022/12/14 02:38:37;;;;;;;14.80;12.50;;;;;;;;;;107859;1278;22571;-31
2022/12/14 02:41:27;;;;;;;16.20;13.30;;;;;;;;;;107887;1278;22597;-31
2022/12/14 02:44:08;;;;;;;14.80;12.70;;;;;;;;;;107860;1282;22623;-31
2022/12/14 02:46:49;;;;;;;14.90;12.30;;;;;;;;;;107853;1279;22577;-31
2022/12/14 02:49:38;;;;;;;14.60;12.50;;;;;;;;;;107847;1277;25289;-31
2022/12/14 02:52:23;;;;;;;15.50;12.50;;;;;;;;;;107904;1277;24848;-31
2022/12/14 02:55:03;;;;;;;15.60;12.90;;;;;;;;;;107908;1276;22597;-31
2022/12/14 02:57:43;;;;;;;15.80;12.60;;;;;;;;;;107888;1276;22600;-31
2022/12/14 03:00:20;;;;;;;14.30;12.40;;;;;;;;;;107855;1277;22586;-31
2022/12/14 03:02:55;;;;;;;15.70;12.30;;;;;;;;;;107856;1277;22584;-31
2022/12/14 03:05:28;;;;;;;15.70;12.60;;;;;;;;;;107876;1277;22591;-31
2022/12/14 03:08:05;;;;;;;15.50;12.80;;;;;;;;;;107800;1285;22742;-31
2022/12/14 03:10:46;;;;;;;14.90;12.50;;;;;;;;;;107867;1276;22584;-31
2022/12/14 03:13:26;;;;;;;14.50;12.30;;;;;;;;;;107931;1276;22564;-31
2022/12/14 03:16:03;;;;;;;14.40;11.70;;;;;;;;;;107919;1276;24888;-31
2022/12/14 03:18:40;;;;;;;13.60;12.00;;;;;;;;;;107927;1276;22712;-31
2022/12/14 03:21:34;;;;;;;15.50;12.70;;;;;;;;;;107852;1282;22572;-31
2022/12/14 03:24:14;;;;;;;15.40;11.80;;;;;;;;;;107845;1277;23340;-31
2022/12/14 03:26:52;;;;;;;15.20;12.60;;;;;;;;;;107860;1279;22573;-31
2022/12/14 03:29:28;;;;;;;15.30;12.40;;;;;;;;;;107838;1279;22783;-31
2022/12/14 03:32:04;;;;;;;14.10;12.20;;;;;;;;;;107904;1277;22587;-31
2022/12/14 03:34:43;;;;;;;13.60;11.70;;;;;;;;;;107931;1277;22891;-31
2022/12/14 03:37:20;;;;;;;14.20;11.80;;;;;;;;;;107921;1276;22592;-31
2022/12/14 03:39:52;;;;;;;14.80;11.60;;;;;;;;;;107865;1276;22583;-31
2022/12/14 03:42:29;;;;;;;14.90;11.90;;;;;;;;;;107836;1277;22590;-31
2022/12/14 03:45:12;;;;;;;14.70;11.70;;;;;;;;;;107872;1278;22611;-31
2022/12/14 03:48:00;;;;;;;13.30;11.60;;;;;;;;;;107869;1282;22593;-31
2022/12/14 03:50:41;;;;;;;13.70;11.00;;;;;;;;;;107834;1278;25248;-31
2022/12/14 03:53:19;;;;;;;13.10;11.60;;;;;;;;;;107900;1278;22598;-31
2022/12/14 03:56:04;;;;;;;13.20;11.00;;;;;;;;;;107920;1279;22564;-31
2022/12/14 03:58:49;;;;;;;14.10;10.70;;;;;;;;;;107929;1279;22602;-31
2022/12/14 04:01:37;;;;;;;14.50;12.10;;;;;;;;;;107839;1282;25433;-31
2022/12/14 04:04:17;;;;;;;12.60;11.20;;;;;;;;;;107838;1284;26039;-31
2022/12/14 04:07:02;;;;;;;14.70;12.10;;;;;;;;;;107854;1276;22596;-31
2022/12/14 04:09:42;;;;;;;13.50;11.10;;;;;;;;;;107873;1278;22579;-31
2022/12/14 04:21:09;;;;;;;13.90;11.00;;;;;;;;;;107897;1277;22566;-31
2022/12/14 04:26:46;;;;;;;13.20;10.90;;;;;;;;;;107894;1283;22633;-31
2022/12/14 04:32:19;;;;;;;14.20;10.90;;;;;;;;;;107863;1277;22596;-31
2022/12/14 04:34:56;;;;;;;12.90;10.50;;;;;;;;;;107917;1278;23364;-31
2022/12/14 04:37:32;;;;;;;13.80;11.20;;;;;;;;;;107909;1284;22588;-31
2022/12/14 04:40:11;;;;;;;13.60;11.00;;;;;;;;;;107916;1284;22582;-31
2022/12/14 04:42:50;;;;;;;12.70;10.50;;;;;;;;;;107874;1278;22571;-31
2022/12/14 04:45:28;;;;;;;13.60;11.10;;;;;;;;;;107912;1277;22565;-31
2022/12/14 04:48:08;;;;;;;12.20;10.20;;;;;;;;;;107915;1276;23423;-31
2022/12/14 04:50:45;;;;;;;12.00;10.30;;;;;;;;;;107909;1279;22574;-31
2022/12/14 04:53:23;;;;;;;12.10;9.70;;;;;;;;;;107865;1285;22680;-31
2022/12/14 04:56:07;;;;;;;13.30;10.60;;;;;;;;;;107883;1277;22594;-31
2022/12/14 04:58:40;;;;;;;13.10;10.40;;;;;;;;;;107860;1279;22668;-31
2022/12/14 05:01:30;;;;;;;12.80;10.20;;;;;;;;;;107831;1282;22564;-31
2022/12/14 05:04:13;;;;;;;11.40;9.90;;;;;;;;;;107920;1277;22593;-31
2022/12/14 05:07:01;;;;;;;12.90;10.60;;;;;;;;;;107811;1277;145040;-31
2022/12/14 05:09:41;;;;;;;11.90;10.00;;;;;;;;;;107908;1276;22626;-31
2022/12/14 05:12:23;;;;;;;12.40;9.70;;;;;;;;;;107829;1277;22575;-31
2022/12/14 05:15:06;;;;;;;11.80;10.10;;;;;;;;;;107858;1282;22640;-31
2022/12/14 05:17:41;;;;;;;13.00;10.20;;;;;;;;;;107883;1279;25354;-30
2022/12/14 05:20:22;;;;;;;11.10;9.60;;;;;;;;;;107871;1282;23942;-30
2022/12/14 05:22:54;;;;;;;12.70;10.20;;;;;;;;;;107862;1280;22591;-31
2022/12/14 05:25:27;;;;;;;13.20;10.20;;;;;;;;;;107920;1280;23851;-31
2022/12/14 05:28:01;;;;;;;11.70;9.90;;;;;;;;;;107926;1277;22594;-31
2022/12/14 05:30:34;;;;;;;13.30;9.80;;;;;;;;;;107916;1280;22665;-30
2022/12/14 05:33:11;;;;;;;12.10;10.20;;;;;;;;;;107852;1284;22572;-30
2022/12/14 05:35:43;;;;;;;12.30;9.70;;;;;;;;;;107852;1279;22592;-31
2022/12/14 05:38:15;;;;;;;12.90;10.30;;;;;;;;;;107848;1278;22612;-30
2022/12/14 05:40:47;;;;;;;12.90;10.30;;;;;;;;;;107852;1278;24885;-30
2022/12/14 05:43:22;;;;;;;12.90;10.30;;;;;;;;;;107887;1280;22562;-30
2022/12/14 05:46:01;;;;;;;11.70;10.00;;;;;;;;;;107930;1276;22591;-31
2022/12/14 05:48:35;;;;;;;12.60;10.10;;;;;;;;;;107925;1281;22579;-30
2022/12/14 05:51:14;;;;;;;11.60;9.60;;;;;;;;;;107888;1283;22594;-30
2022/12/14 05:53:47;;;;;;;11.90;10.10;;;;;;;;;;107847;1279;22575;-31
2022/12/14 05:56:20;;;;;;;13.10;10.50;;;;;;;;;;107859;1282;22563;-31
2022/12/14 05:58:54;;;;;;;12.00;10.40;;;;;;;;;;107857;1282;22591;-30
2022/12/14 06:01:26;;;;;;;13.30;10.80;;;;;;;;;;107843;1275;22585;-30
2022/12/14 06:03:59;;;;;;;13.80;10.50;;;;;;;;;;107858;1277;25249;-31
2022/12/14 06:06:34;;;;;;;13.20;9.90;;;;;;;;;;107920;1278;22583;-31
2022/12/14 06:09:09;;;;;;;13.40;10.20;;;;;;;;;;107905;1278;25243;-31
2022/12/14 06:11:43;;;;;;;12.10;9.80;;;;;;;;;;107917;1283;22568;-31
2022/12/14 06:14:16;;;;;;;12.20;9.30;;;;;;;;;;107811;1277;25947;-31
2022/12/14 06:16:47;;;;;;;;;;;;;;;;;;107856;1279;25484;-31
2022/12/14 06:19:22;;;;;;;10.90;9.50;;;;;;;;;;107859;1282;25432;-31
2022/12/14 06:21:55;;;;;;;11.80;9.30;;;;;;;;;;107849;1279;22590;-31
2022/12/14 06:24:27;;;;;;;13.10;9.40;;;;;;;;;;107877;1279;22558;-30
2022/12/14 06:27:03;;;;;;;14.00;9.30;;;;;;;;;;107953;1273;22571;-31
2022/12/14 06:29:35;;;;;;;12.50;9.20;;;;;;;;;;107932;1279;22581;-31
2022/12/14 06:32:08;;;;;;;12.10;9.50;;;;;;;;;;107907;1277;22595;-31
2022/12/14 06:34:41;;;;;;;11.50;8.60;;;;;;;;;;107822;1276;22568;-31
2022/12/14 06:37:14;;;;;;;11.70;9.60;;;;;;;;;;107845;1282;25400;-31
2022/12/14 06:39:46;;;;;;;11.20;9.60;;;;;;;;;;107864;1277;25297;-31
2022/12/14 06:42:19;;;;;;;12.40;9.80;;;;;;;;;;107888;1279;22591;-31
2022/12/14 06:44:52;;;;;;;11.30;8.80;;;;;;;;;;107866;1276;22601;-31
2022/12/14 06:47:27;;;;;;;;;;;;;;;;;;107947;1283;22587;-31
2022/12/14 06:49:59;;;;;;;11.80;9.10;;;;;;;;;;107920;1277;25252;-28
2022/12/14 06:52:33;;;;;;;11.20;9.50;;;;;;;;;;107910;1280;22551;-28
2022/12/14 06:55:08;;;;;;;11.00;9.00;;;;;;;;;;107843;1279;23464;-28
2022/12/14 06:57:40;;;;;;;12.60;9.50;;;;;;;;;;107881;1282;22578;-30
2022/12/14 07:00:19;;;;;;;11.70;9.20;;;;;;;;;;107793;1279;25441;-30
2022/12/14 07:02:51;;;;;;;12.30;9.50;;;;;;;;;;107887;1282;23353;-30
2022/12/14 07:05:24;;;;;;;11.70;9.20;;;;;;;;;;107862;1284;22592;-30
2022/12/14 07:07:56;;;;;;;12.30;9.70;;;;;;;;;;107917;1276;22540;-30
2022/12/14 07:10:29;;;;;;;12.00;9.30;;;;;;;;;;107911;1284;22641;-30
2022/12/14 07:13:01;;;;;;;12.80;9.50;;;;;;;;;;107943;1277;24926;-30
2022/12/14 07:15:34;;;;;;;11.70;9.30;;;;;;;;;;107852;1283;22669;-30
2022/12/14 07:18:06;;;;;;;11.90;9.50;;;;;;;;;;107862;1278;22576;-30
2022/12/14 07:20:38;;;;;;;13.00;9.60;;;;;;;;;;107876;1282;23872;-30
2022/12/14 07:23:11;;;;;;;10.90;8.80;;;;;;;;;;107901;1282;22568;-30
2022/12/14 07:25:43;;;;;;;11.30;9.20;;;;;;;;;;107879;1283;22598;-30
2022/12/14 07:28:19;;;;;;;11.70;9.60;;;;;;;;;;107912;1280;25500;-30
2022/12/14 07:30:56;;;;;;;13.10;9.80;;;;;;;;;;107914;1284;22577;-30
2022/12/14 07:33:29;;;;;;;11.30;8.90;;;;;;;;;;107901;1280;25287;-30
2022/12/14 07:36:15;;;;;;;11.40;9.50;;;;;;;;;;107847;1277;22576;-30
2022/12/14 07:38:51;;;;;;;10.50;9.00;;;;;;;;;;107865;1277;22611;-30
2022/12/14 07:41:29;;;;;;;12.00;9.40;;;;;;;;;;107866;1284;22608;-30
2022/12/14 07:44:05;;;;;;;10.80;8.70;;;;;;;;;;107905;1284;22582;-30
2022/12/14 07:46:38;;;;;;;12.20;9.80;;;;;;;;;;107873;1279;22600;-30
2022/12/14 07:49:12;;;;;;;11.30;9.50;;;;;;;;;;107904;1276;25352;-30
2022/12/14 07:51:44;;;;;;;10.80;8.60;;;;;;;;;;107901;1283;24847;-30
2022/12/14 07:54:17;;;;;;;10.80;8.50;;;;;;;;;;107913;1277;24877;-30
2022/12/14 07:56:50;;;;;;;13.00;9.30;;;;;;;;;;107899;1282;22543;-30
2022/12/14 07:59:22;;;;;;;10.70;8.70;;;;;;;;;;107930;1278;22579;-30
2022/12/14 08:01:55;;;;;;;11.30;9.20;;;;;;;;;;107955;1283;24929;-30
2022/12/14 08:04:29;;;;;;;10.70;8.90;;;;;;;;;;107967;1283;22636;-30
2022/12/14 08:07:01;;;;;;;11.40;8.90;;;;;;;;;;107903;1281;22595;-30
2022/12/14 08:09:34;;;;;;;10.20;8.30;;;;;;;;;;107934;1280;22653;-30
2022/12/14 08:12:08;;;;;;;12.20;9.20;;;;;;;;;;107934;1283;23422;-30
2022/12/14 08:14:38;;;;;;;;;;;;;;;;;;107943;1283;22581;-30
2022/12/14 08:17:11;;;;;;;11.20;9.00;;;;;;;;;;108042;1281;22587;-30
2022/12/14 08:19:44;;;;;;;10.70;8.90;;;;;;;;;;107931;1282;22665;-30
2022/12/14 08:22:17;;;;;;;12.40;9.70;;;;;;;;;;107917;1283;22562;-30
2022/12/14 08:24:50;;;;;;;10.90;8.80;;;;;;;;;;107913;1283;22583;-30
2022/12/14 08:27:22;;;;;;;11.80;9.00;;;;;;;;;;107881;1276;23839;-30
2022/12/14 08:29:56;;;;;;;11.80;9.30;;;;;;;;;;107928;1283;22631;-30
2022/12/14 08:32:29;;;;;;;11.50;9.30;;;;;;;;;;107902;1282;22578;-31
2022/12/14 08:35:04;;;;;;;11.50;8.70;;;;;;;;;;107930;1283;25176;-31
2022/12/14 08:37:36;;;;;;;11.10;8.70;;;;;;;;;;107864;1283;22576;-31
2022/12/14 08:40:12;;;;;;;12.00;10.10;;;;;;;;;;107920;1282;24164;-31
2022/12/14 08:42:46;;;;;;;10.60;9.00;;;;;;;;;;107897;1282;23047;-30
2022/12/14 08:45:19;;;;;;;11.80;9.30;;;;;;;;;;107787;1278;22598;-29
2022/12/14 08:47:52;;;;;;;12.00;9.30;;;;;;;;;;107823;1283;22626;-29
2022/12/14 08:50:30;;;;;;;13.50;10.10;;;;;;;;;;107880;1278;22575;-30
2022/12/14 08:53:04;;;;;;;15.00;9.90;;;;;;;;;;107873;1281;22591;-30
2022/12/14 08:55:38;;;;;;;14.90;10.20;;;;;;;;;;107862;1276;23487;-30
2022/12/14 08:58:13;;;;;;;15.60;10.90;;;;;;;;;;107762;1283;22578;-29
2022/12/14 09:00:46;;;;;;;16.10;11.10;;;;;;;;;;107831;1281;25980;-29
2022/12/14 09:03:18;;;;;;;17.30;11.20;;;;;;;;;;107764;1284;22576;-29
2022/12/14 09:05:54;;;;;;;17.90;11.80;;;;;;;;;;107763;1279;22590;-30
2022/12/14 09:08:27;;;;;;;15.80;11.30;;;;;;;;;;107831;1279;25452;-29
2022/12/14 09:11:00;;;;;;;13.60;10.80;;;;;;;;;;107865;1283;22576;-29
2022/12/14 09:13:32;;;;;;;;;;;;;;;;;;107918;1280;23319;-29
2022/12/14 09:16:07;;;;;;;18.10;11.90;;;;;;;;;;107902;1280;22576;-29
2022/12/14 09:18:39;;;;;;;15.20;11.40;;;;;;;;;;107974;1276;25432;-30
2022/12/14 09:21:13;;;;;;;19.20;12.10;;;;;;;;;;107863;1278;25924;-30
2022/12/14 09:23:47;;;;;;;16.00;11.50;;;;;;;;;;107856;1282;22615;-29
2022/12/14 09:26:22;;;;;;;15.80;12.20;;;;;;;;;;107881;1278;22573;-29
2022/12/14 09:28:57;;;;;;;15.90;12.50;;;;;;;;;;107688;1282;22574;-28
2022/12/14 09:31:30;;;;;;;14.50;12.00;;;;;;;;;;107829;1282;22595;-28
2022/12/14 09:34:06;;;;;;;18.50;12.10;;;;;;;;;;107818;1282;22585;-28
2022/12/14 09:36:41;;;;;;;17.10;12.40;;;;;;;;;;107866;1277;22583;-30
2022/12/14 09:39:13;;;;;;;17.90;11.80;;;;;;;;;;107815;1282;25003;-29
2022/12/14 09:42:00;;;;;;;16.50;12.10;;;;;;;;;;107864;1283;23915;-30
2022/12/14 09:44:51;;;;;;;17.40;11.90;;;;;;;;;;107878;1278;22612;-29
2022/12/14 09:47:31;;;;;;;17.70;12.60;;;;;;;;;;107808;1283;22607;-30
2022/12/14 09:50:10;;;;;;;16.60;11.80;;;;;;;;;;107855;1284;22737;-30
2022/12/14 09:52:48;;;;;;;13.80;11.50;;;;;;;;;;107855;1281;23807;-30
2022/12/14 09:55:27;;;;;;;17.20;11.20;;;;;;;;;;107843;1283;22584;-30
2022/12/14 09:58:09;;;;;;;15.40;11.80;;;;;;;;;;107825;1281;23406;-30
2022/12/14 10:00:48;;;;;;;14.80;11.00;;;;;;;;;;107883;1286;23378;-30
2022/12/14 10:03:49;;;;;;;14.20;10.30;;;;;;;;;;107829;1283;22720;-30
2022/12/14 10:06:40;;;;;;;14.50;11.20;;;;;;;;;;107822;1278;22592;-30
2022/12/14 10:09:23;;;;;;;14.60;11.20;;;;;;;;;;107861;1281;22589;-30
2022/12/14 10:12:05;;;;;;;16.30;11.70;;;;;;;;;;107866;1280;22599;-30
2022/12/14 10:15:02;;;;;;;14.80;10.50;;;;;;;;;;107899;1282;23317;-30
2022/12/14 10:17:58;;;;;;;15.90;11.50;;;;;;;;;;107880;1284;22572;-30
2022/12/14 10:20:38;;;;;;;15.20;10.80;;;;;;;;;;107982;1283;22591;-30
2022/12/14 10:23:19;;;;;;;16.20;12.00;;;;;;;;;;107852;1283;22575;-30
2022/12/14 10:25:54;;;;;;;15.00;11.20;;;;;;;;;;107904;1283;22577;-30
2022/12/14 10:28:49;;;;;;;15.10;11.70;;;;;;;;;;107840;1283;22671;-30
2022/12/14 10:31:31;;;;;;;16.00;11.10;;;;;;;;;;107871;1283;22641;-29
2022/12/14 10:34:18;;;;;;;15.30;10.60;;;;;;;;;;107890;1283;22598;-29
2022/12/14 10:36:59;;;;;;;15.10;10.90;;;;;;;;;;107855;1280;23814;-29
2022/12/14 10:39:47;;;;;;;16.20;11.40;;;;;;;;;;107837;1281;22582;-29
2022/12/14 10:42:29;;;;;;;13.50;10.00;;;;;;;;;;107841;1276;25456;-29
2022/12/14 10:45:23;;;;;;;13.70;11.10;;;;;;;;;;107886;1283;25432;-28
2022/12/14 10:48:10;;;;;;;13.50;11.00;;;;;;;;;;107872;1283;22643;-29
2022/12/14 10:50:55;;;;;;;15.00;10.90;;;;;;;;;;107828;1276;22604;-30
2022/12/14 10:53:37;;;;;;;13.80;11.10;;;;;;;;;;107856;1283;22638;-30
2022/12/14 10:56:17;;;;;;;13.50;11.10;;;;;;;;;;107856;1282;23919;-29
2022/12/14 10:59:28;;;;;;;13.90;10.60;;;;;;;;;;107829;1282;22577;-29
2022/12/14 11:02:12;;;;;;;14.40;11.10;;;;;;;;;;107817;1283;23385;-29
2022/12/14 11:04:51;;;;;;;13.40;10.50;;;;;;;;;;107878;1277;22590;-31
2022/12/14 11:07:27;;;;;;;14.20;11.40;;;;;;;;;;107907;1283;22722;-30
2022/12/14 11:10:22;;;;;;;14.00;10.80;;;;;;;;;;107846;1283;24947;-30
2022/12/14 11:13:04;;;;;;;12.60;10.40;;;;;;;;;;107922;1281;22630;-30
2022/12/14 11:15:42;;;;;;;12.60;10.70;;;;;;;;;;107925;1281;22590;-30
2022/12/14 11:18:29;;;;;;;14.30;10.70;;;;;;;;;;107900;1283;26688;-30
2022/12/14 11:21:04;;;;;;;14.60;10.50;;;;;;;;;;107873;1283;22671;-30
2022/12/14 11:23:41;;;;;;;13.30;10.50;;;;;;;;;;107908;1283;26208;-30
2022/12/14 11:26:27;;;;;;;13.30;10.50;;;;;;;;;;107912;1283;22568;-30
2022/12/14 11:29:05;;;;;;;14.20;10.20;;;;;;;;;;107929;1277;23921;-30
2022/12/14 11:31:45;;;;;;;11.70;10.40;;;;;;;;;;107848;1276;22576;-30
2022/12/14 11:34:33;;;;;;;13.10;10.80;;;;;;;;;;107910;1283;22562;-30
2022/12/14 11:37:22;;;;;;;12.40;10.30;;;;;;;;;;107916;1282;22574;-30
2022/12/14 11:39:59;;;;;;;12.20;10.40;;;;;;;;;;107859;1284;25440;-30
2022/12/14 11:42:35;;;;;;;13.40;10.50;;;;;;;;;;107852;1278;22590;-30
2022/12/14 11:48:23;;;;;;;12.50;10.30;;;;;;;;;;104668;1304;549051;-30
2022/12/14 11:51:10;;;;;;;12.40;10.50;;;;;;;;;;107903;1279;22588;-30
2022/12/14 11:53:43;;;;;;;14.60;11.00;;;;;;;;;;107909;1279;22629;-30
2022/12/14 11:56:17;;;;;;;13.00;10.80;;;;;;;;;;107922;1278;22581;-30
2022/12/14 11:58:55;;;;;;;12.70;10.70;;;;;;;;;;107852;1278;22626;-30
2022/12/14 12:01:29;;;;;;;13.90;10.80;;;;;;;;;;107659;1276;378035;-30
2022/12/14 12:04:02;;;;;;;13.80;11.10;;;;;;;;;;108057;1273;24841;-30
2022/12/14 12:06:37;;;;;;;13.70;10.10;;;;;;;;;;108078;1278;22578;-30
2022/12/14 12:09:33;;;;;;;13.90;10.80;;;;;;;;;;108078;1273;22568;-30
2022/12/14 12:12:07;;;;;;;13.30;10.40;;;;;;;;;;108094;1275;22571;-30
2022/12/14 12:14:42;;;;;;;13.30;11.20;;;;;;;;;;108134;1265;23899;-30
2022/12/14 12:17:37;;;;;;;14.50;10.60;;;;;;;;;;108107;1278;22583;-30
2022/12/14 12:20:32;;;;;;;12.40;10.80;;;;;;;;;;108075;1273;22887;-30
2022/12/14 12:23:15;;;;;;;13.50;10.60;;;;;;;;;;108063;1274;22578;-30
2022/12/14 12:25:52;;;;;;;12.00;10.50;;;;;;;;;;108307;1271;22627;-30
2022/12/14 12:28:31;;;;;;;13.30;10.80;;;;;;;;;;108276;1270;25271;-30
2022/12/14 12:31:11;;;;;;;13.10;10.60;;;;;;;;;;108347;1269;22619;-30
2022/12/14 12:33:49;;;;;;;12.80;10.30;;;;;;;;;;108374;1269;22716;-30
2022/12/14 12:36:24;;;;;;;13.80;10.80;;;;;;;;;;108361;1275;22580;-30
2022/12/14 12:39:06;;;;;;;12.50;10.70;;;;;;;;;;108321;1269;22585;-30
2022/12/14 12:42:01;;;;;;;12.30;10.40;;;;;;;;;;108377;1268;22572;-30
2022/12/14 12:44:49;;;;;;;13.20;10.80;;;;;;;;;;108338;1272;22562;-30
2022/12/14 12:47:29;;;;;;;12.80;10.10;;;;;;;;;;108309;1268;22574;-30
2022/12/14 12:50:07;;;;;;;12.40;10.90;;;;;;;;;;108349;1269;22580;-30
2022/12/14 12:52:57;;;;;;;12.60;10.50;;;;;;;;;;108349;1269;22579;-30
2022/12/14 12:55:43;;;;;;;13.30;10.60;;;;;;;;;;108376;1275;22616;-30
2022/12/14 12:58:27;;;;;;;12.30;10.20;;;;;;;;;;108355;1275;25405;-30
2022/12/14 13:01:05;;;;;;;12.30;10.40;;;;;;;;;;108432;1268;22572;-30
2022/12/14 13:03:44;;;;;;;13.60;10.40;;;;;;;;;;108347;1268;22588;-30
2022/12/14 13:06:23;;;;;;;12.60;10.20;;;;;;;;;;108217;1275;22555;-30
2022/12/14 13:08:59;;;;;;;11.80;10.00;;;;;;;;;;108333;1269;22586;-30
2022/12/14 13:11:42;;;;;;;12.20;10.30;;;;;;;;;;108339;1276;22559;-30
2022/12/14 13:14:29;;;;;;;12.00;9.90;;;;;;;;;;108327;1276;22574;-30
2022/12/14 13:17:06;;;;;;;12.30;10.00;;;;;;;;;;108332;1269;22576;-30
2022/12/14 13:19:44;;;;;;;12.40;10.20;;;;;;;;;;108294;1269;22561;-30
2022/12/14 13:22:20;;;;;;;12.00;10.60;;;;;;;;;;108618;1264;24835;-30
2022/12/14 13:24:54;;;;;;;12.60;10.00;;;;;;;;;;108619;1268;22568;-30
2022/12/14 13:27:54;;;;;;;11.40;9.60;;;;;;;;;;108600;1266;22572;-30
2022/12/14 13:30:42;;;;;;;11.90;10.00;;;;;;;;;;108615;1266;22562;-30
2022/12/14 13:33:41;;;;;;;13.20;10.60;;;;;;;;;;108671;1265;22559;-30
2022/12/14 13:36:39;;;;;;;11.20;9.80;;;;;;;;;;108692;1256;25425;-30
2022/12/14 13:39:46;;;;;;;11.40;9.60;;;;;;;;;;108710;1265;24878;-30
2022/12/14 13:42:30;;;;;;;12.00;9.50;;;;;;;;;;108707;1264;24878;-30
2022/12/14 13:45:16;;;;;;;10.90;9.70;;;;;;;;;;108634;1265;22576;-30
2022/12/14 13:47:52;;;;;;;12.50;10.50;;;;;;;;;;108628;1264;22562;-30
2022/12/14 13:50:35;;;;;;;11.40;10.10;;;;;;;;;;108594;1264;23031;-30
2022/12/14 13:53:16;;;;;;;11.50;9.80;;;;;;;;;;108697;1264;22900;-30
2022/12/14 13:55:56;;;;;;;11.50;9.30;;;;;;;;;;108702;1265;22574;-30
2022/12/14 13:58:39;;;;;;;11.50;9.60;;;;;;;;;;108673;1265;22624;-30
2022/12/14 14:01:17;;;;;;;12.10;9.60;;;;;;;;;;108636;1264;22536;-30
2022/12/14 14:03:58;;;;;;;11.40;9.10;;;;;;;;;;108646;1265;22558;-30
2022/12/14 14:06:42;;;;;;;11.30;10.00;;;;;;;;;;108609;1265;22613;-30
2022/12/14 14:09:57;;;;;;;12.30;9.60;;;;;;;;;;108641;1266;22548;-30
2022/12/14 14:12:52;;;;;;;11.60;9.80;;;;;;;;;;108627;1272;22570;-30
2022/12/14 14:15:43;;;;;;;11.80;9.50;;;;;;;;;;108661;1265;22753;-30
2022/12/14 14:18:22;;;;;;;11.90;9.80;;;;;;;;;;108652;1269;24897;-30
2022/12/14 14:21:38;;;;;;;10.30;8.80;;;;;;;;;;108633;1265;22559;-30
2022/12/14 14:24:23;;;;;;;11.10;9.40;;;;;;;;;;108627;1265;23878;-30
2022/12/14 14:27:11;;;;;;;12.00;9.40;;;;;;;;;;108616;1268;22571;-30
2022/12/14 14:29:50;;;;;;;11.20;9.70;;;;;;;;;;108617;1265;22562;-30
2022/12/14 14:32:41;;;;;;;11.30;9.60;;;;;;;;;;108484;1265;22584;-29
2022/12/14 14:35:27;;;;;;;11.40;9.60;;;;;;;;;;108605;1266;24902;-28
2022/12/14 14:38:05;;;;;;;11.00;9.00;;;;;;;;;;108627;1265;22588;-29
2022/12/14 14:40:39;;;;;;;10.70;8.90;;;;;;;;;;108623;1264;22567;-29
2022/12/14 14:43:20;;;;;;;;;;;;;;;;;;108560;1264;24544;-29
2022/12/14 14:45:57;;;;;;;10.50;9.40;;;;;;;;;;108579;1263;22559;-30
2022/12/14 14:48:41;;;;;;;11.30;9.10;;;;;;;;;;108564;1265;22564;-29
2022/12/14 14:51:24;;;;;;;11.40;9.60;;;;;;;;;;108456;1262;25097;-28
2022/12/14 14:54:30;;;;;;;10.80;9.20;;;;;;;;;;108649;1265;22518;-29
2022/12/14 14:57:02;;;;;;;10.70;9.10;;;;;;;;;;108596;1265;22573;-29
2022/12/14 14:59:48;;;;;;;11.80;10.00;;;;;;;;;;108610;1266;23819;-29
2022/12/14 15:02:40;;;;;;;11.30;9.40;;;;;;;;;;108558;1269;22567;-29
2022/12/14 15:05:22;;;;;;;10.40;8.80;;;;;;;;;;108595;1265;23812;-29
2022/12/14 15:07:59;;;;;;;10.30;8.30;;;;;;;;;;108590;1265;25353;-29
2022/12/14 15:10:43;;;;;;;10.50;9.10;;;;;;;;;;108554;1265;23347;-29
2022/12/14 15:13:25;;;;;;;11.30;9.40;;;;;;;;;;108543;1266;25300;-29
2022/12/14 15:15:58;;;;;;;11.60;9.40;;;;;;;;;;108624;1266;22565;-29
2022/12/14 15:18:32;;;;;;;11.30;9.50;;;;;;;;;;108584;1266;22549;-28
2022/12/14 15:21:11;;;;;;;12.50;9.20;;;;;;;;;;108495;1265;22549;-29
2022/12/14 15:23:50;;;;;;;11.80;9.70;;;;;;;;;;108553;1265;22559;-30
2022/12/14 15:26:27;;;;;;;11.30;9.60;;;;;;;;;;108610;1271;22565;-30
2022/12/14 15:29:03;;;;;;;10.70;8.90;;;;;;;;;;108582;1271;24919;-30
2022/12/14 15:31:39;;;;;;;11.10;9.80;;;;;;;;;;108572;1269;25272;-30
2022/12/14 15:34:19;;;;;;;11.60;9.70;;;;;;;;;;108522;1262;22734;-30
2022/12/14 15:36:57;;;;;;;11.90;9.50;;;;;;;;;;108606;1265;25264;-30